CheckWX is a tool to help pilots better visualize weather data.  It is not intended as a substitute for an official pre-flight weather briefing.

11:59:58 UTC

KSDF METAR
Louisville International-Standiford Field Airport
Louisville, Kentucky, USA
Current

38 mins ago

KSDF 261122Z 32020G32KT 10SM SCT020 OVC036 13/09 A2969 RMK AO2 PK WND 30032/1117 RAE19 P0000 T01330089
Observed
Apr-26 @ 11:22 UTC
Wind
  • 320° at 20 KTS
  • Gusting to 32 KTS
Visibility
10 SM
Flight Rules
VFR
Cloud Levels
  • Scattered at 2,000' AGL
  • Overcast at 3,600' AGL
Temperature
13°C / 55°F
Dewpoint
C / 48°F
Humidity
77%
Altimeter
29.69" Hg
Pressure
1005.42 hPa
Current Rain
0.01"
Previous

1 hour ago

KSDF 261056Z 30020G31KT 10SM -RA BKN015 OVC020 14/11 A2965 RMK AO2 PK WND 30031/1049 RAB41 SLP039 P0000 T01390106
Observed
Apr-26 @ 10:56 UTC
Wind
  • 300° at 20 KTS
  • Gusting to 31 KTS
Visibility
10 SM
Flight Rules
MVFR
Conditions
Light Rain
Cloud Levels
  • Broken at 1,500' AGL
  • Overcast at 2,000' AGL
Temperature
14°C / 57°F
Dewpoint
11°C / 52°F
Humidity
82%
Altimeter
29.65" Hg
Pressure
1004.02 hPa
Current Rain
0.01"
Previous

2 hours ago

KSDF 261006Z 28011KT 7SM FEW019 BKN026 OVC034 15/13 A2960 RMK AO2 T01500128
Observed
Apr-26 @ 10:06 UTC
Wind
  • 280° at 11 KTS
Visibility
7 SM
Flight Rules
MVFR
Cloud Levels
  • Few at 1,900' AGL
  • Broken at 2,600' AGL
  • Overcast at 3,400' AGL
Temperature
15°C / 59°F
Dewpoint
13°C / 55°F
Humidity
88%
Altimeter
29.6" Hg
Pressure
1002.42 hPa